Tiempo atmosférico en la estación meteorológica de Tarragona, Tarragona (60 m.)



Fecha
DESCASC
Temp. máxima en grados centígrados (hora)
DESCASC
Temp. mínima en grados centígrados (hora)
DESCASC
Temp. media en grados centígrados
DESCASC
Racha de viento máxima en m/sg (hora)
DESCASC
Velocidad máxima media en intervalos de 10 minutos(hora)
DESCASC
Precipitaciones diarias en mm
DESCASC
Precipitaciones de 00:00 a 06:00 en mm
DESCASC
Precipitaciones de 06:00 a 12:00 en mm
DESCASC
Precipitaciones de 12:00 a 18:00 en mm
DESCASC
Precipitaciones de 18:00 a 24:00 en mm
DESCASC
20-09-2018 28.7 (13:30) 19.8 (07:30) 24.3 -- (--) -- (--) 0 0 0 0 0
19-09-2018 27 (14:50) 19.5 (04:10) 23.3 -- (--) -- (--) 0 0 0 0 0
18-09-2018 26.8 (15:10) 20 (06:00) 23.4 -- (--) -- (--) 6.4 2.8 3.6 0 0
17-09-2018 27.8 (15:20) 20.3 (06:20) 24 -- (--) -- (--) 0 0 0 0 0
16-09-2018 27.2 (15:50) 20.5 (00:00) 23.9 -- (--) -- (--) 0 0 0 0 0
15-09-2018 26.4 (12:50) 21.1 (00:00) 23.8 -- (--) -- (--) 11.8 0 0 10.2 1.6
14-09-2018 28.6 (15:10) 18.4 (00:00) 23.5 -- (--) -- (--) 0 0 0 0 0
13-09-2018 28.7 (13:10) 19.5 (00:00) 24.1 -- (--) -- (--) 0 0 0 0 0
12-09-2018 28.3 (12:40) 20.9 (00:00) 24.6 -- (--) -- (--) 0.4 0 0 0 0.4
11-09-2018 29 (13:20) 20.6 (00:00) 24.8 -- (--) -- (--) 0 0 0 0 0
10-09-2018 27.7 (12:50) 21.2 (00:00) 24.5 -- (--) -- (--) 0 0 0 0 0
09-09-2018 27.8 (13:30) 21 (00:00) 24.4 -- (--) -- (--) 0 0 0 0 0
08-09-2018 27.1 (12:20) 18.9 (00:00) 23 -- (--) -- (--) 0 0 0 0 0
07-09-2018 27.3 (12:50) 17.8 (00:00) 22.5 -- (--) -- (--) 0 0 0 0 0
06-09-2018 28.7 (16:40) 19.3 (00:00) 24 -- (--) -- (--) 22.2 15 0 0 7.2
05-09-2018 28.1 (14:50) 21.6 (00:00) 24.9 -- (--) -- (--) 0.2 0 0 0 0.2
04-09-2018 28.7 (13:20) 22.1 (00:00) 25.4 -- (--) -- (--) 0 0 0 0 0
03-09-2018 28.6 (13:50) 24.8 (00:00) 26.7 -- (--) -- (--) 0 0 0 0 0
02-09-2018 28.4 (15:50) 22.9 (00:00) 25.6 -- (--) -- (--) 0 0 0 0 0
01-09-2018 29 (16:10) 20.7 (00:00) 24.9 -- (--) -- (--) 0 0 0 0 0
31-08-2018 26.7 (15:20) 22 (00:00) 24.4 -- (--) -- (--) 5.4 4.8 0.6 0 0
30-08-2018 29.6 (13:20) 22.5 (00:00) 26.1 -- (--) -- (--) 0 0 0 0 0
29-08-2018 28.7 (16:40) 21.5 (00:00) 25.1 -- (--) -- (--) 0.6 0 0 0.6 0
28-08-2018 29.2 (15:40) 23.9 (00:00) 26.6 -- (--) -- (--) 0.2 0 0 0 0.2
27-08-2018 29 (16:00) 20.9 (00:00) 24.9 -- (--) -- (--) 0 0 0 0 0
26-08-2018 27.1 (14:10) 17.8 (00:00) 22.4 -- (--) -- (--) 0 0 0 0 0
25-08-2018 28.3 (13:00) 19.4 (00:00) 23.8 -- (--) -- (--) 2.2 0 0 0 2.2
24-08-2018 35.2 (16:10) 21.2 (00:00) 28.2 -- (--) -- (--) 0 0 0 0 0
23-08-2018 29.8 (15:10) 22.2 (00:00) 26 -- (--) -- (--) 0 0 0 0 0

Gráficas

Temp. máximas Temp. mínimas Temp. medias Precipitaciones Rachas de viento máximas Velocidades máximas media en intervalos de 10 minutos

Datos horarios

Fecha y hora oficial Temperatura (ºC) Velocidad del viento (km/h) Dirección del viento Racha (km/h) Dirección de racha Precipitación (mm) Presión (hPa) Tendencia (hPa) Humedad (%)
2018-09-21 23:00:00 24.1 2 Este 6 Este 0 -- -- 86
2018-09-21 22:00:00 25 3 Este 9 Este 0 -- -- 82
2018-09-21 21:00:00 25.8 5 Sudeste 10 Sudeste 0 -- -- 77
2018-09-21 20:00:00 26.1 4 Sudoeste 12 Sudoeste 0 -- -- 73
2018-09-21 19:00:00 27 7 Sudoeste 17 Sudoeste 0 -- -- 71
2018-09-21 18:00:00 27.8 6 Sudoeste 19 Sudoeste 0 -- -- 68
2018-09-21 17:00:00 28.9 10 Sudoeste 21 Sudoeste 0 -- -- 64
2018-09-21 16:00:00 29.3 10 Sudoeste 20 Sudoeste 0 -- -- 62
2018-09-21 15:00:00 29.3 8 Sudoeste 18 Sudoeste 0 -- -- 65
2018-09-21 14:00:00 29.3 6 Sudoeste 17 Sudoeste 0 -- -- 64
2018-09-21 13:00:00 28.4 7 Sudoeste 16 Oeste 0 -- -- 68
2018-09-21 12:00:00 27.9 8 Sur 17 Sudoeste 0 -- -- 70
2018-09-21 11:00:00 27.2 5 Sudoeste 12 Sudoeste 0 -- -- 70
2018-09-21 10:00:00 25.4 3 Noroeste 7 Noroeste 0 -- -- 76
2018-09-21 09:00:00 21.8 4 Noroeste 9 Norte 0 -- -- 80
2018-09-21 08:00:00 19.2 4 Noroeste 8 Noroeste 0 -- -- 85
2018-09-21 07:00:00 19.5 3 Norte 8 Norte 0 -- -- 85
2018-09-21 06:00:00 19.5 3 Norte 7 Noroeste 0 -- -- 86
2018-09-21 05:00:00 19.7 3 Noroeste 5 Noroeste 0 -- -- 92
2018-09-21 04:00:00 20.2 0 Calma 9 Noroeste 0 -- -- 92
2018-09-21 03:00:00 20.8 4 Noroeste 7 Noroeste 0 -- -- 93
2018-09-21 02:00:00 21.4 3 Noroeste 7 Norte 0 -- -- 92
2018-09-21 01:00:00 21.8 0 Calma 6 Noroeste 0 -- -- 91
2018-09-21 00:00:00 22.8 2 Noroeste 4 Noroeste 0 -- -- 90
2018-09-20 23:00:00 23.8 0 Calma 8 Oeste 0 -- -- 88
2018-09-20 22:00:00 24.3 3 Oeste 9 Oeste 0 -- -- 86
2018-09-20 21:00:00 24.7 4 Sudoeste 11 Oeste 0 -- -- 85
2018-09-20 20:00:00 25.5 5 Sudoeste 14 Sur 0 -- -- 80
2018-09-20 19:00:00 26.3 6 Sudoeste 16 Sudoeste 0 -- -- 76
2018-09-20 18:00:00 27.5 6 Sudoeste 15 Sudoeste 0 -- -- 71
2018-09-20 17:00:00 28 9 Sudoeste 22 Oeste 0 -- -- 70
2018-09-20 16:00:00 27.9 9 Sur 18 Sudeste 0 -- -- 68
2018-09-20 15:00:00 28.2 8 Sur 17 Sudoeste 0 -- -- 66
2018-09-20 14:00:00 28.3 8 Sudeste 17 Sudeste 0 -- -- 66
2018-09-20 13:00:00 28.4 6 Sur 13 Sudoeste 0 -- -- 65
2018-09-20 12:00:00 27.6 6 Sudoeste 12 Sudoeste 0 -- -- 67
2018-09-20 11:00:00 27 3 Oeste 9 Noroeste 0 -- -- 70
2018-09-20 10:00:00 25.2 4 Noroeste 9 Noroeste 0 -- -- 77
2018-09-20 09:00:00 22.2 4 Noroeste 8 Noroeste 0 -- -- 81
2018-09-20 08:00:00 19.9 3 Norte 8 Norte 0 -- -- 86
2018-09-20 07:00:00 20.1 4 Norte 8 Norte 0 -- -- 85
2018-09-20 06:00:00 20.1 4 Norte 9 Norte 0 -- -- 86
2018-09-20 05:00:00 20.3 4 Norte 10 Norte 0 -- -- 88
2018-09-20 04:00:00 20.5 5 Norte 12 Norte 0 -- -- 92
2018-09-20 03:00:00 20.8 3 Noroeste 5 Oeste 0 -- -- 91
2018-09-20 02:00:00 21.3 3 Norte 6 Noroeste 0 -- -- 90
2018-09-20 01:00:00 21.7 3 Noroeste 6 Noroeste 0 -- -- 89
2018-09-20 00:00:00 22.1 4 Noroeste 6 Noroeste 0 -- -- 88
2018-09-19 23:00:00 22.7 2 Noroeste 3 Norte 0 -- -- 85
2018-09-19 22:00:00 23.4 0 Calma 5 Noroeste 0 -- -- 82
2018-09-19 21:00:00 23.9 0 Calma 8 Sur 0 -- -- 79
2018-09-19 20:00:00 24.5 4 Sur 10 Sudoeste 0 -- -- 77
2018-09-19 19:00:00 25.3 4 Sur 13 Sur 0 -- -- 74
2018-09-19 18:00:00 26.1 6 Sudeste 15 Sur 0 -- -- 72
2018-09-19 17:00:00 26.9 8 Sudeste 20 Este 0 -- -- 69
2018-09-19 16:00:00 27 9 Sudeste 19 Sudeste 0 -- -- 69
2018-09-19 15:00:00 27 9 Sudeste 19 Sudeste 0 -- -- 68
2018-09-19 14:00:00 26.8 9 Sur 17 Sudeste 0 -- -- 68
2018-09-19 13:00:00 26.7 8 Sudeste 19 Sudeste 0 -- -- 66
2018-09-19 12:00:00 26.6 10 Sudeste 18 Este 0 -- -- 67
2018-09-19 11:00:00 26.3 6 Sudeste 12 Este 0 -- -- 67
2018-09-19 10:00:00 24.5 6 Noroeste 12 Nordeste 0 -- -- 71
2018-09-19 09:00:00 21.6 4 Norte 12 Norte 0 -- -- 80
2018-09-19 08:00:00 19.7 3 Noroeste 8 Nordeste 0 -- -- 87
2018-09-19 07:00:00 19.7 0 Calma 11 Norte 0 -- -- 86
2018-09-19 06:00:00 20 4 Norte 10 Norte 0 -- -- 85
2018-09-19 05:00:00 19.9 6 Norte 11 Noroeste 0 -- -- 87
2018-09-19 04:00:00 19.6 0 Calma 4 Oeste 0 -- -- 90
2018-09-19 03:00:00 19.9 2 Este 4 Sudeste 0 -- -- 90
2018-09-19 02:00:00 20.2 0 Calma 6 Noroeste 0 -- -- 89
2018-09-19 01:00:00 20.8 0 Calma 9 Noroeste 0 -- -- 86
2018-09-19 00:00:00 21.3 3 Norte 6 Norte 0 -- -- 86
2018-09-18 23:00:00 21.7 2 Norte 6 Noroeste 0 -- -- 85
2018-09-18 22:00:00 22.5 3 Noroeste 6 Nordeste 0 -- -- 84
2018-09-18 21:00:00 23.3 0 Calma 11 Este 0 -- -- 81
2018-09-18 20:00:00 24.1 5 Este 12 Este 0 -- -- 78
2018-09-18 19:00:00 24.6 8 Sudeste 18 Sur 0 -- -- 76
2018-09-18 18:00:00 26.1 9 Sudeste 19 Sudeste 0 -- -- 73
2018-09-18 17:00:00 26.1 9 Este 19 Nordeste 0 -- -- 72
2018-09-18 16:00:00 25.6 8 Sudeste 18 Este 0 -- -- 67
2018-09-18 15:00:00 26.4 7 Sudeste 18 Sudeste 0 -- -- 62
2018-09-18 14:00:00 25.2 9 Sudeste 16 Sur 0 -- -- 69
2018-09-18 13:00:00 24.9 7 Sudeste 14 Este 0 -- -- 64
2018-09-18 12:00:00 23.3 4 Sudeste 9 Sudeste 0 -- -- 77
2018-09-18 11:00:00 21.5 2 Oeste 12 Noroeste 0 -- -- 89
2018-09-18 10:00:00 20.4 2 Norte 15 Este 0.2 -- -- 95
2018-09-18 09:00:00 20.1 8 Este 17 Este 1.6 -- -- 94
2018-09-18 08:00:00 20.3 4 Este 11 Sudeste 0.6 -- -- 94
2018-09-18 07:00:00 20 3 Norte 12 Nordeste 1.2 -- -- 93
2018-09-18 06:00:00 20 4 Norte 13 Norte 2 -- -- 91
2018-09-18 05:00:00 21 7 Noroeste 12 Noroeste 0.4 -- -- 88
2018-09-18 04:00:00 21.3 2 Norte 12 Norte 0 -- -- 87
2018-09-18 03:00:00 21.2 4 Nordeste 13 Nordeste 0.4 -- -- 88
2018-09-18 02:00:00 21.7 4 Norte 10 Norte 0 -- -- 85
2018-09-18 01:00:00 22.1 0 Calma 9 Nordeste 0 -- -- 86
2018-09-18 00:00:00 22.2 2 Este 5 Norte 0 -- -- 85
2018-09-17 23:00:00 22.3 0 Calma 4 Nordeste 0 -- -- 84
2018-09-17 22:00:00 22.9 0 Calma 5 Norte 0 -- -- 81
2018-09-17 21:00:00 23.7 0 Calma 9 Sudeste 0 -- -- 79
2018-09-17 20:00:00 24.7 6 Sudeste 17 Sudeste 0 -- -- 73
2018-09-17 19:00:00 25.2 8 Este 19 Sudeste 0 -- -- 74
2018-09-17 18:00:00 26.3 11 Sudeste 21 Este 0 -- -- 71
2018-09-17 17:00:00 27.2 10 Sudeste 22 Sur 0 -- -- 69
2018-09-17 16:00:00 27.2 13 Sudeste 22 Sur 0 -- -- 68
2018-09-17 15:00:00 27.6 12 Sudeste 25 Este 0 -- -- 67
2018-09-17 14:00:00 27.3 11 Sudeste 21 Este 0 -- -- 69
2018-09-17 13:00:00 27.5 11 Sudeste 22 Este 0 -- -- 66
2018-09-17 12:00:00 27.3 10 Sudeste 21 Este 0 -- -- 66
2018-09-17 11:00:00 26.5 8 Sudeste 15 Sudeste 0 -- -- 64
2018-09-17 10:00:00 24.9 4 Este 12 Este 0 -- -- 74
2018-09-17 09:00:00 22.2 3 Noroeste 6 Norte 0 -- -- 83
2018-09-17 08:00:00 20.6 3 Norte 10 Norte 0 -- -- 87
2018-09-17 07:00:00 20.6 4 Norte 8 Norte 0 -- -- 89
2018-09-17 06:00:00 20.5 0 Calma 6 Noroeste 0 -- -- 90
2018-09-17 05:00:00 21 0 Calma 4 Este 0 -- -- 89
2018-09-17 04:00:00 21.1 0 Calma 9 Noroeste 0 -- -- 90
2018-09-17 03:00:00 21.2 2 Noroeste 5 Noroeste 0 -- -- 90
2018-09-17 02:00:00 22.2 3 Norte 6 Noroeste 0 -- -- 88
2018-09-17 01:00:00 22.1 3 Norte 12 Norte 0 -- -- 90
2018-09-17 00:00:00 21.9 3 Noroeste 6 Noroeste 0 -- -- 89
2018-09-16 23:00:00 22.7 2 Sudeste 6 Este 0 -- -- 87
2018-09-16 22:00:00 23.2 0 Calma 5 Norte 0 -- -- 85
2018-09-16 21:00:00 23.9 2 Este 6 Este 0 -- -- 83
2018-09-16 20:00:00 24.7 3 Este 9 Nordeste 0 -- -- 80
2018-09-16 19:00:00 25.3 5 Sudeste 14 Sudeste 0 -- -- 77
2018-09-16 18:00:00 26.1 9 Sudeste 19 Sudeste 0 -- -- 73
2018-09-16 17:00:00 26.6 9 Sudeste 18 Este 0 -- -- 69
2018-09-16 16:00:00 27 10 Sudeste 19 Sudeste 0 -- -- 66
2018-09-16 15:00:00 26.9 10 Sudeste 18 Este 0 -- -- 64
2018-09-16 14:00:00 26.7 8 Sudeste 16 Sur 0 -- -- 67
2018-09-16 13:00:00 26.6 8 Sudeste 12 Sudeste 0 -- -- 68
2018-09-16 12:00:00 24.7 6 Sudeste 11 Sudeste 0 -- -- 79
2018-09-16 11:00:00 22.6 6 Sudeste 10 Sudeste 0 -- -- 87
2018-09-16 10:00:00 21.1 0 Calma 6 Nordeste 0 -- -- 92
2018-09-16 09:00:00 21 4 Noroeste 9 Sudeste 0 -- -- 92
2018-09-16 08:00:00 20.9 0 Calma 6 Norte 0 -- -- 92
2018-09-16 07:00:00 20.6 0 Calma 5 Norte 0 -- -- 93
2018-09-16 06:00:00 20.6 2 Norte 5 Norte 0 -- -- 93
2018-09-16 05:00:00 21 3 Noroeste 5 Noroeste 0 -- -- 93
2018-09-16 04:00:00 21 2 Noroeste 5 Este 0 -- -- 92
2018-09-16 03:00:00 21 3 Este 10 Nordeste 0 -- -- 91
2018-09-16 02:00:00 20.9 3 Este 7 Nordeste 0 -- -- 92
2018-09-16 01:00:00 21 0 Calma 5 Nordeste 0 -- -- 93
2018-09-16 00:00:00 21.1 0 Calma 4 Noroeste 0 -- -- 94
2018-09-15 23:00:00 21.2 0 Calma 5 Noroeste 0 -- -- 94
2018-09-15 22:00:00 21.3 2 Noroeste 6 Noroeste 0 -- -- 93
2018-09-15 21:00:00 21.3 3 Este 6 Norte 0 -- -- 93
2018-09-15 20:00:00 21.3 0 Calma 5 Norte 0 -- -- 93
2018-09-15 19:00:00 21.1 3 Noroeste 11 Oeste 1.6 -- -- 93
2018-09-15 18:00:00 21.6 6 Oeste 21 Sur 9 -- -- 92
2018-09-15 17:00:00 23.8 6 Sur 24 Sudeste 1.2 -- -- 84
2018-09-15 16:00:00 25 12 Sudeste 29 Sudeste 0 -- -- 68
2018-09-15 15:00:00 25.1 11 Sudeste 24 Este 0 -- -- 68
2018-09-15 14:00:00 25.5 14 Sudeste 28 Sudeste 0 -- -- 72
2018-09-15 13:00:00 26.4 12 Sudeste 23 Sudeste 0 -- -- 72
2018-09-15 12:00:00 26.2 12 Sudeste 23 Este 0 -- -- 68
2018-09-15 11:00:00 24.6 7 Este 18 Este 0 -- -- 73
2018-09-15 10:00:00 24.2 6 Este 15 Este 0 -- -- 78
2018-09-15 09:00:00 23.2 4 Este 10 Este 0 -- -- 82
2018-09-15 08:00:00 22.7 5 Este 12 Sudeste 0 -- -- 85
2018-09-15 07:00:00 22.7 5 Sudeste 12 Sudeste 0 -- -- 87
2018-09-15 06:00:00 22.3 2 Este 8 Nordeste 0 -- -- 90
2018-09-15 05:00:00 22.6 0 Calma 6 Este 0 -- -- 90
2018-09-15 04:00:00 22.7 2 Este 8 Este 0 -- -- 89
2018-09-15 03:00:00 23 0 Calma 4 Este 0 -- -- 89
2018-09-15 02:00:00 22.9 0 Calma -- -- 0 -- -- 89
2018-09-15 01:00:00 23.4 0 Calma 5 Noroeste 0 -- -- 87
2018-09-15 00:00:00 24 0 Calma 5 Oeste 0 -- -- 85
2018-09-14 23:00:00 24.2 2 Oeste 5 Noroeste 0 -- -- 85
2018-09-14 22:00:00 24.6 3 Noroeste 13 Oeste 0 -- -- 82
2018-09-14 21:00:00 25.1 5 Oeste 13 Sur 0 -- -- 80
2018-09-14 20:00:00 25.3 6 Oeste 17 Sudoeste 0 -- -- 77
2018-09-14 19:00:00 26.1 7 Sudoeste 19 Sudoeste 0 -- -- 71
2018-09-14 18:00:00 26.6 9 Sudoeste 19 Oeste 0 -- -- 68
2018-09-14 17:00:00 27.3 7 Sudoeste 17 Sudoeste 0 -- -- 62
2018-09-14 16:00:00 27.8 9 Sudeste 22 Sudeste 0 -- -- 50
2018-09-14 15:00:00 28.5 10 Sudeste 17 Sudeste 0 -- -- 43
2018-09-14 14:00:00 26.8 8 Sudeste 14 Sudeste 0 -- -- 56
2018-09-14 13:00:00 27 8 Sudeste 13 Sudeste 0 -- -- 56
2018-09-14 12:00:00 26.4 7 Sudeste 14 Sur 0 -- -- 61
2018-09-14 11:00:00 26.2 5 Sudeste 10 Noroeste 0 -- -- 61
2018-09-14 10:00:00 23.3 6 Noroeste 14 Norte 0 -- -- 68
2018-09-14 09:00:00 20.6 5 Noroeste 10 Noroeste 0 -- -- 78
2018-09-14 08:00:00 18.4 4 Noroeste 8 Noroeste 0 -- -- 90
2018-09-14 07:00:00 18.8 2 Noroeste 6 Noroeste 0 -- -- 91
2018-09-14 06:00:00 19.3 4 Noroeste 9 Norte 0 -- -- 92
2018-09-14 05:00:00 19.7 3 Noroeste 6 Noroeste 0 -- -- 91
2018-09-14 04:00:00 20.6 2 Noroeste 8 Noroeste 0 -- -- 89
2018-09-14 03:00:00 21.4 2 Noroeste 5 Norte 0 -- -- 90
2018-09-14 02:00:00 21.9 0 Calma 5 Noroeste 0 -- -- 87
2018-09-14 01:00:00 22.9 3 Noroeste 12 Oeste 0 -- -- 85
2018-09-14 00:00:00 24.1 3 Noroeste 13 Sudoeste 0 -- -- 82
2018-09-13 23:00:00 24.4 3 Oeste 12 Sur 0 -- -- 81
2018-09-13 22:00:00 24.5 4 Oeste 13 Sudoeste 0 -- -- 80
2018-09-13 21:00:00 24.8 4 Sudoeste 15 Sudoeste 0 -- -- 79
2018-09-13 20:00:00 25.3 5 Oeste 16 Sudoeste 0 -- -- 76
2018-09-13 19:00:00 25.9 9 Sudoeste 18 Oeste 0 -- -- 72
2018-09-13 18:00:00 27.5 9 Sudoeste 23 Sudoeste 0 -- -- 65
2018-09-13 17:00:00 27.8 8 Sur 25 Sudoeste 0 -- -- 64
2018-09-13 16:00:00 28 10 Sur 26 Sudeste 0 -- -- 61
2018-09-13 15:00:00 27.6 13 Sudeste 24 Sudeste 0 -- -- 62
2018-09-13 14:00:00 28.6 8 Sur 19 Sur 0 -- -- 55
2018-09-13 13:00:00 28.5 7 Sudoeste 17 Sudoeste 0 -- -- 56
2018-09-13 12:00:00 27.6 6 Sur 13 Oeste 0 -- -- 61
2018-09-13 11:00:00 26 3 Sur 9 Sur 0 -- -- 69
2018-09-13 10:00:00 24.9 4 Norte 10 Noroeste 0 -- -- 71
2018-09-13 09:00:00 22.2 5 Norte 12 Norte 0 -- -- 77
2018-09-13 08:00:00 20.3 5 Norte 12 Noroeste 0 -- -- 84
2018-09-13 07:00:00 19.7 3 Noroeste 9 Noroeste 0 -- -- 85
2018-09-13 06:00:00 20.4 3 Norte 7 Noroeste 0 -- -- 81
2018-09-13 05:00:00 20.4 3 Este 9 Este 0 -- -- 81
2018-09-13 04:00:00 20.5 3 Nordeste 12 Nordeste 0 -- -- 81
2018-09-13 03:00:00 20.4 5 Noroeste 8 Norte 0 -- -- 84
2018-09-13 02:00:00 20.6 3 Norte 11 Norte 0 -- -- 83
2018-09-13 01:00:00 20.9 4 Norte 8 Noroeste 0 -- -- 84
2018-09-13 00:00:00 21 4 Norte 10 Noroeste 0 -- -- 86
2018-09-12 23:00:00 21.1 3 Nordeste 8 Norte 0.2 -- -- 87
2018-09-12 22:00:00 21.8 4 Norte 17 Nordeste 0.2 -- -- 78
2018-09-12 21:00:00 24.4 3 Norte 21 Noroeste 0 -- -- 66
2018-09-12 20:00:00 25.6 5 Sudeste 14 Sudoeste 0 -- -- 79
2018-09-12 19:00:00 26 6 Sur 15 Sudeste 0 -- -- 78
2018-09-12 18:00:00 26 6 Sur 15 Sudeste 0 -- -- 78
2018-09-12 17:00:00 26.4 6 Sur 18 Sudeste 0 -- -- 76
2018-09-12 16:00:00 27.5 10 Sudeste 22 Sudeste 0 -- -- 72
2018-09-12 15:00:00 27.5 11 Sudeste 18 Sudeste 0 -- -- 70
2018-09-12 14:00:00 27.8 12 Sudeste 21 Este 0 -- -- 66
2018-09-12 13:00:00 28.3 8 Sudeste 16 Este 0 -- -- 62
2018-09-12 12:00:00 27.6 10 Sudeste 17 Sur 0 -- -- 59
2018-09-12 11:00:00 27.8 5 Este 10 Este 0 -- -- 53
2018-09-12 10:00:00 25 4 Noroeste 10 Noroeste 0 -- -- 63
2018-09-12 09:00:00 22.4 0 Calma 10 Norte 0 -- -- 69
2018-09-12 08:00:00 21.5 5 Norte 14 Noroeste 0 -- -- 71
2018-09-12 07:00:00 21.4 6 Norte 12 Norte 0 -- -- 71
2018-09-12 06:00:00 21.5 4 Norte 8 Norte 0 -- -- 76
2018-09-12 05:00:00 21.7 3 Norte 8 Norte 0 -- -- 80
2018-09-12 04:00:00 22 3 Norte 8 Noroeste -- -- -- 77
2018-09-12 03:00:00 22.1 5 Norte 10 Noroeste 0 -- -- 76
2018-09-12 02:00:00 22.5 4 Norte 9 Norte 0 -- -- 84
2018-09-12 01:00:00 22.6 5 Noroeste 9 Noroeste 0 -- -- 85
2018-09-12 00:00:00 22.7 3 Norte 7 Noroeste 0 -- -- 84
2018-09-11 23:00:00 23.2 3 Norte 13 Sudeste 0 -- -- 82
2018-09-11 22:00:00 23.9 5 Nordeste 15 Nordeste 0 -- -- 81
2018-09-11 21:00:00 24.6 2 Nordeste 8 Este 0 -- -- 77
2018-09-11 20:00:00 25.3 4 Este 15 Sudeste 0 -- -- 74
2018-09-11 19:00:00 26 9 Sudeste 17 Este 0 -- -- 71
2018-09-11 18:00:00 27 10 Sudeste 21 Este 0 -- -- 66
2018-09-11 17:00:00 27.9 8 Este 21 Sudeste 0 -- -- 61
2018-09-11 16:00:00 28 9 Sudeste 22 Este 0 -- -- 58
2018-09-11 15:00:00 28.7 9 Este 19 Este 0 -- -- 54
2018-09-11 14:00:00 28.6 10 Sudeste 17 Sudeste 0 -- -- 50
2018-09-11 13:00:00 28.6 8 Sudeste 19 Este 0 -- -- 47
2018-09-11 12:00:00 28.2 8 Sudeste 15 Este 0 -- -- 54
2018-09-11 11:00:00 26.8 6 Sudeste 12 Sudeste 0 -- -- 59
2018-09-11 10:00:00 25.9 4 Sudeste 8 Este 0 -- -- 62
2018-09-11 09:00:00 22.7 0 Calma 12 Norte 0 -- -- 73
2018-09-11 08:00:00 21.2 5 Norte 15 Norte 0 -- -- 76
2018-09-11 07:00:00 21 5 Norte 11 Norte 0 -- -- 78
2018-09-11 06:00:00 20.6 2 Noroeste 10 Norte 0 -- -- 80
2018-09-11 05:00:00 20.8 4 Norte 12 Norte 0 -- -- 81
2018-09-11 04:00:00 21 6 Noroeste 13 Norte 0 -- -- 81
2018-09-11 03:00:00 21.2 2 Norte 11 Noroeste 0 -- -- 80
2018-09-11 02:00:00 21.7 5 Norte 11 Norte 0 -- -- 79
2018-09-11 01:00:00 21.9 5 Norte 9 Noroeste 0 -- -- 78
2018-09-11 00:00:00 21.8 3 Norte 8 Norte 0 -- -- 77
2018-09-10 23:00:00 22.4 4 Norte 7 Noroeste 0 -- -- 76
2018-09-10 22:00:00 23.3 0 Calma 4 Este 0 -- -- 72
2018-09-10 21:00:00 24.3 3 Sudeste 10 Sudeste 0 -- -- 67
2018-09-10 20:00:00 24.5 4 Sur 12 Sudeste 0 -- -- 67
2018-09-10 19:00:00 25.1 6 Sudeste 19 Este 0 -- -- 63
2018-09-10 18:00:00 25.9 9 Sur 18 Sudeste 0 -- -- 68
2018-09-10 17:00:00 25.7 10 Sudeste 18 Sur 0 -- -- 69
2018-09-10 16:00:00 26.1 9 Sudeste 21 Sudeste 0 -- -- 65
2018-09-10 15:00:00 26.5 12 Sudeste 22 Sudeste 0 -- -- 65
2018-09-10 14:00:00 26.1 8 Sudeste 20 Este 0 -- -- 65
2018-09-10 13:00:00 27.6 10 Sudeste 21 Sudeste 0 -- -- 60
2018-09-10 12:00:00 26.7 5 Nordeste 13 Noroeste 0 -- -- 62
2018-09-10 11:00:00 24.3 5 Norte 13 Noroeste 0 -- -- 70
2018-09-10 10:00:00 22.6 5 Norte 10 Noroeste 0 -- -- 74
2018-09-10 09:00:00 21.5 5 Norte 9 Noroeste 0 -- -- 78
2018-09-10 08:00:00 21.3 2 Norte 5 Noroeste 0 -- -- 78
2018-09-10 07:00:00 21.5 3 Norte 11 Noroeste 0 -- -- 75
2018-09-10 06:00:00 21.5 5 Norte 11 Norte 0 -- -- 77
2018-09-10 05:00:00 21.3 5 Noroeste 13 Norte 0 -- -- 79
2018-09-10 04:00:00 21.6 6 Norte 13 Norte 0 -- -- 79
2018-09-10 03:00:00 22.6 0 Calma 10 Norte 0 -- -- 76
2018-09-10 02:00:00 22.7 0 Calma 8 Norte 0 -- -- 78
2018-09-10 01:00:00 23 4 Norte 13 Norte 0 -- -- 79
2018-09-10 00:00:00 23.2 5 Norte 11 Nordeste 0 -- -- 81
2018-09-09 23:00:00 23.6 4 Norte 10 Nordeste 0 -- -- 81
2018-09-09 22:00:00 24 3 Norte 9 Noroeste 0 -- -- 79
2018-09-09 21:00:00 24.7 2 Noroeste 19 Este 0 -- -- 77
2018-09-09 20:00:00 25.5 7 Sudeste 19 Este 0 -- -- 71
2018-09-09 19:00:00 25.9 9 Sudeste 18 Sudeste 0 -- -- 71
2018-09-09 18:00:00 26.8 11 Sur 21 Este 0 -- -- 70
2018-09-09 17:00:00 27.2 10 Sudeste 22 Sudeste 0 -- -- 73
2018-09-09 16:00:00 27.5 12 Sudeste 23 Sudeste 0 -- -- 72
2018-09-09 15:00:00 27 12 Sudeste 22 Sudeste 0 -- -- 72
2018-09-09 14:00:00 27.3 13 Sudeste 21 Sur 0 -- -- 70
2018-09-09 13:00:00 27.4 6 Sudeste 17 Este 0 -- -- 68
2018-09-09 12:00:00 26.1 11 Sudeste 15 Sudeste 0 -- -- 71
2018-09-09 11:00:00 26 3 Este 10 Noroeste 0 -- -- 72
2018-09-09 10:00:00 23.5 3 Noroeste 9 Norte 0 -- -- 79
2018-09-09 09:00:00 21.9 5 Norte 9 Norte 0 -- -- 83
2018-09-09 08:00:00 21.3 4 Norte 9 Norte 0 -- -- 84
2018-09-09 07:00:00 21.3 4 Noroeste 11 Norte 0 -- -- 87
2018-09-09 06:00:00 21.1 0 Calma 8 Noroeste 0 -- -- 89
2018-09-09 05:00:00 21.6 0 Calma 5 Este 0 -- -- 88
2018-09-09 04:00:00 21.8 3 Norte 9 Noroeste 0 -- -- 88
2018-09-09 03:00:00 21.8 0 Calma 4 Norte 0 -- -- 89
2018-09-09 02:00:00 21.8 0 Calma 4 Noroeste 0 -- -- 88
2018-09-09 01:00:00 22.6 0 Calma 3 Este 0 -- -- 85
2018-09-09 00:00:00 23.1 0 Calma 4 Este 0 -- -- 83
2018-09-08 23:00:00 23.5 0 Calma 8 Sudeste 0 -- -- 82
2018-09-08 22:00:00 23.9 2 Este 9 Sudeste 0 -- -- 80
2018-09-08 21:00:00 24.8 4 Este 10 Este 0 -- -- 77
2018-09-08 20:00:00 25.3 5 Sudeste 12 Sur 0 -- -- 74
2018-09-08 19:00:00 25.8 8 Sudeste 16 Sudeste 0 -- -- 71
2018-09-08 18:00:00 26.2 9 Sudeste 16 Sudeste 0 -- -- 70
2018-09-08 17:00:00 26.3 8 Sudeste 22 Sudeste 0 -- -- 69
2018-09-08 16:00:00 26.6 10 Sudeste 18 Sudeste 0 -- -- 68
2018-09-08 15:00:00 26.3 8 Sudeste 19 Sudeste 0 -- -- 72
2018-09-08 14:00:00 26.6 10 Sudeste 18 Sudeste 0 -- -- 73
2018-09-08 13:00:00 26.2 9 Sudeste 18 Sudeste 0 -- -- 74
2018-09-08 12:00:00 26.8 7 Sudeste 15 Sur 0 -- -- 70
2018-09-08 11:00:00 26 8 Sudeste 13 Sudeste 0 -- -- 73
2018-09-08 10:00:00 23.9 4 Norte 12 Nordeste 0 -- -- 76
2018-09-08 09:00:00 21.1 5 Noroeste 9 Noroeste 0 -- -- 84
2018-09-08 08:00:00 18.9 3 Noroeste 6 Noroeste 0 -- -- 90
2018-09-08 07:00:00 19.1 3 Noroeste 5 Noroeste 0 -- -- 91
2018-09-08 06:00:00 19.3 0 Calma 4 Noroeste 0 -- -- 91
2018-09-08 05:00:00 19.5 0 Calma 8 Norte 0 -- -- 91
2018-09-08 04:00:00 19.7 4 Noroeste 8 Noroeste 0 -- -- 90
2018-09-08 03:00:00 20.1 0 Calma 6 Noroeste 0 -- -- 89
2018-09-08 02:00:00 20.6 2 Norte 11 Norte 0 -- -- 87
2018-09-08 01:00:00 20.7 3 Noroeste 8 Noroeste 0 -- -- 84
2018-09-08 00:00:00 21.5 4 Noroeste 10 Norte 0 -- -- 78
2018-09-07 23:00:00 22.1 4 Norte 7 Norte 0 -- -- 78
2018-09-07 22:00:00 23.1 3 Norte 6 Sur 0 -- -- 76
2018-09-07 21:00:00 24.3 3 Sudoeste 9 Sudeste 0 -- -- 71
2018-09-07 20:00:00 25 5 Sur 13 Sudeste 0 -- -- 69
2018-09-07 19:00:00 25.5 6 Sudeste 20 Sudeste 0 -- -- 65
2018-09-07 18:00:00 26.7 8 Sudeste 21 Sudeste 0 -- -- 61
2018-09-07 17:00:00 26.7 10 Sur 22 Sur 0 -- -- 52
2018-09-07 16:00:00 27.1 12 Sudeste 23 Sudeste 0 -- -- 53
2018-09-07 15:00:00 26.8 11 Sudeste 25 Sudeste 0 -- -- 51
2018-09-07 14:00:00 27.3 11 Sudeste 20 Sudeste 0 -- -- 49
2018-09-07 13:00:00 27.1 8 Sudeste 15 Sudeste 0 -- -- 52
2018-09-07 12:00:00 26.7 7 Noroeste 15 Noroeste 0 -- -- 55
2018-09-07 11:00:00 24.6 5 Norte 11 Norte 0 -- -- 59
2018-09-07 10:00:00 22.4 5 Noroeste 10 Norte 0 -- -- 69
2018-09-07 09:00:00 19.8 4 Noroeste 10 Noroeste 0 -- -- 79
2018-09-07 08:00:00 17.8 4 Noroeste 9 Noroeste 0 -- -- 88
2018-09-07 07:00:00 18 5 Noroeste 13 Noroeste 0 -- -- 86
2018-09-07 06:00:00 18.4 5 Noroeste 14 Noroeste 0 -- -- 84
2018-09-07 05:00:00 18.3 5 Noroeste 9 Noroeste 0 -- -- 89
2018-09-07 04:00:00 18.7 2 Noroeste 6 Noroeste 0 -- -- 92
2018-09-07 03:00:00 19.1 4 Noroeste 8 Norte 0 -- -- 92
2018-09-07 02:00:00 19 4 Noroeste 10 Norte 0 -- -- 91
2018-09-07 01:00:00 19.1 3 Noroeste 6 Noroeste 0 -- -- 92
2018-09-07 00:00:00 19.3 2 Norte 9 Este 0 -- -- 88
2018-09-06 23:00:00 20 4 Este 31 Este 7.2 -- -- 86
2018-09-06 22:00:00 24.3 13 Sudeste 25 Sudeste 0 -- -- 68
2018-09-06 21:00:00 24.7 7 Sudeste 15 Este 0 -- -- 77
2018-09-06 20:00:00 25.2 6 Este 19 Este 0 -- -- 76
2018-09-06 19:00:00 25.9 9 Sudeste 19 Sudeste 0 -- -- 70
2018-09-06 18:00:00 26.9 12 Sudeste 22 Este 0 -- -- 65
2018-09-06 17:00:00 27.8 9 Sudeste 17 Sudeste 0 -- -- 61
2018-09-06 16:00:00 27.6 10 Sudeste 23 Sudeste 0 -- -- 60
2018-09-06 15:00:00 27.9 9 Sur 21 Sudeste 0 -- -- 58
2018-09-06 14:00:00 27.6 9 Sudeste 18 Sudeste 0 -- -- 60
2018-09-06 13:00:00 27.4 7 Sudoeste 17 Sudeste 0 -- -- 59
2018-09-06 12:00:00 27.6 8 Sudeste 18 Sudeste 0 -- -- 58
2018-09-06 11:00:00 25.4 4 Norte 11 Nordeste 0 -- -- 67
2018-09-06 10:00:00 22.2 6 Norte 14 Norte 0 -- -- 82
2018-09-06 09:00:00 20.6 5 Norte 15 Norte 0 -- -- 87
2018-09-06 08:00:00 19.8 5 Norte 12 Norte 0 -- -- 92
2018-09-06 07:00:00 20.1 5 Noroeste 10 Noroeste 0 -- -- 94
2018-09-06 06:00:00 20.5 4 Noroeste 8 Norte 0 -- -- 94
2018-09-06 05:00:00 20.4 4 Noroeste 6 Noroeste 0 -- -- 94
2018-09-06 04:00:00 20.1 0 Calma 6 Noroeste 0 -- -- 94
2018-09-06 03:00:00 20 0 Calma 11 Noroeste 0 -- -- 92
2018-09-06 02:00:00 20.6 3 Norte 28 Este 1 -- -- 91
2018-09-06 01:00:00 22 3 Nordeste 20 Norte 14 -- -- 92
2018-09-06 00:00:00 23.8 5 Este 16 Nordeste 0.2 -- -- 87
2018-09-05 23:00:00 24.7 5 Este 16 Este 0 -- -- 86
2018-09-05 22:00:00 25.1 7 Este 22 Sudeste 0 -- -- 84
2018-09-05 21:00:00 25.1 9 Sudeste 21 Este 0 -- -- 84
2018-09-05 20:00:00 25 9 Sudeste 17 Este 0 -- -- 85
2018-09-05 19:00:00 25.1 3 Este 15 Este 0 -- -- 85
2018-09-05 18:00:00 25.4 4 Este 20 Este 0 -- -- 82
2018-09-05 17:00:00 25.6 10 Sudeste 23 Este 0 -- -- 81
2018-09-05 16:00:00 26.7 13 Sudeste 27 Sudeste 0 -- -- 76
2018-09-05 15:00:00 27.9 15 Sudeste 27 Sudeste 0 -- -- 72
2018-09-05 14:00:00 27.9 12 Sudeste 24 Sudeste 0 -- -- 71
2018-09-05 13:00:00 27.7 13 Sudeste 22 Este 0 -- -- 69
2018-09-05 12:00:00 27.3 9 Sudeste 18 Sudeste 0 -- -- 63
2018-09-05 11:00:00 27.1 9 Sudeste 16 Sudeste 0 -- -- 60
2018-09-05 10:00:00 26.3 2 Nordeste 8 Este 0 -- -- 62
2018-09-05 09:00:00 24 3 Este 9 Noroeste 0 -- -- 70
2018-09-05 08:00:00 22.1 5 Noroeste 10 Norte 0 -- -- 79
2018-09-05 07:00:00 21.9 5 Norte 13 Norte 0 -- -- 78
2018-09-05 06:00:00 21.7 4 Norte 11 Nordeste 0 -- -- 80
2018-09-05 05:00:00 21.9 4 Norte 12 Norte 0 -- -- 86
2018-09-05 04:00:00 22 6 Norte 13 Norte 0 -- -- 89
2018-09-05 03:00:00 22.3 4 Norte 9 Nordeste 0 -- -- 90
2018-09-05 02:00:00 22.4 4 Norte 7 Nordeste 0 -- -- 88
2018-09-05 01:00:00 22.8 0 Calma 5 Este 0 -- -- 88
2018-09-05 00:00:00 23.2 0 Calma 11 Este 0 -- -- 87
2018-09-04 23:00:00 23.8 6 Este 17 Este 0 -- -- 85
2018-09-04 22:00:00 24.3 6 Este 18 Este 0 -- -- 84
2018-09-04 21:00:00 25.1 7 Este 20 Este 0 -- -- 82
2018-09-04 20:00:00 25.5 10 Sudeste 20 Sudeste 0 -- -- 81
2018-09-04 19:00:00 26.1 10 Este 22 Sudeste 0 -- -- 79
2018-09-04 18:00:00 26.8 12 Sudeste 26 Este 0 -- -- 77
2018-09-04 17:00:00 27.4 10 Este 24 Este 0 -- -- 75
2018-09-04 16:00:00 27.8 14 Sudeste 26 Sudeste 0 -- -- 75
2018-09-04 15:00:00 28.4 13 Sudeste 27 Sudeste 0 -- -- 73
2018-09-04 14:00:00 28.1 15 Sudeste 30 Nordeste 0 -- -- 73
2018-09-04 13:00:00 28.5 13 Sudeste 24 Sudeste 0 -- -- 70
2018-09-04 12:00:00 28.1 12 Sudeste 21 Sudeste 0 -- -- 68
2018-09-04 11:00:00 27.6 8 Sudeste 18 Sudeste 0 -- -- 72
2018-09-04 10:00:00 26.3 4 Este 13 Este 0 -- -- 78
2018-09-04 09:00:00 24.3 4 Este 7 Este 0 -- -- 84
2018-09-04 08:00:00 22.2 2 Norte 7 Norte 0 -- -- 91
2018-09-04 07:00:00 22.3 0 Calma 5 Noroeste 0 -- -- 91
2018-09-04 06:00:00 22.7 0 Calma 4 Este 0 -- -- 90
2018-09-04 05:00:00 22.9 0 Calma 9 Noroeste 0 -- -- 89
2018-09-04 04:00:00 23.6 0 Calma 8 Este 0 -- -- 88
2018-09-04 03:00:00 23.9 4 Nordeste 13 Norte 0 -- -- 88
2018-09-04 02:00:00 24.3 4 Norte 15 Norte 0 -- -- 88
2018-09-04 01:00:00 24.8 2 Norte 22 Este 0 -- -- 86
2018-09-04 00:00:00 25.5 10 Este 22 Este 0 -- -- 85
2018-09-03 23:00:00 26 8 Sudeste 13 Este 0 -- -- 84
2018-09-03 22:00:00 26.1 6 Sudeste 19 Sudoeste 0 -- -- 82
2018-09-03 21:00:00 26.1 5 Sur 15 Sudoeste 0 -- -- 81
2018-09-03 20:00:00 26.5 5 Sudoeste 10 Sudoeste 0 -- -- 75
2018-09-03 19:00:00 27 4 Este 18 Este 0 -- -- 76
2018-09-03 18:00:00 26.5 8 Sudeste 18 Este 0 -- -- 78
2018-09-03 17:00:00 26.6 8 Sudeste 27 Sudoeste 0 -- -- 79
2018-09-03 16:00:00 27.4 12 Sudoeste 27 Oeste 0 -- -- 76
2018-09-03 15:00:00 28.2 12 Sudeste 20 Sudeste 0 -- -- 72
2018-09-03 14:00:00 28.6 8 Sur 19 Sudeste 0 -- -- 72
2018-09-03 13:00:00 27.7 10 Sudeste 24 Sudoeste 0 -- -- 75
2018-09-03 12:00:00 27.3 10 Sudeste 24 Sudeste 0 -- -- 76
2018-09-03 11:00:00 27.5 7 Sudoeste 15 Sudoeste 0 -- -- 75
2018-09-03 10:00:00 25.5 4 Este 11 Este 0 -- -- 82
2018-09-03 09:00:00 25.1 6 Este 15 Sudeste 0 -- -- 82
2018-09-03 08:00:00 25.4 10 Sudeste 17 Sudeste 0 -- -- 83
2018-09-03 07:00:00 25.4 7 Sudeste 14 Sur 0 -- -- 85
2018-09-03 06:00:00 25.4 8 Sudeste 17 Sur 0 -- -- 85
2018-09-03 05:00:00 25.5 6 Sudeste 12 Oeste 0 -- -- 85
2018-09-03 04:00:00 25.4 6 Sur 14 Sudeste 0 -- -- 84
2018-09-03 03:00:00 24.8 5 Este 10 Este 0 -- -- 87
2018-09-03 02:00:00 24.8 3 Este 9 Este 0 -- -- 86
2018-09-03 01:00:00 25.2 4 Sudeste 8 Sur 0 -- -- 82
2018-09-03 00:00:00 25.3 3 Sur 9 Sudeste 0 -- -- 83
2018-09-02 23:00:00 25.5 4 Sur 14 Sudoeste 0 -- -- 81
2018-09-02 22:00:00 25.8 6 Sur 15 Sudoeste 0 -- -- 81
2018-09-02 21:00:00 25.7 6 Este 12 Este 0 -- -- 82
2018-09-02 20:00:00 26.1 6 Este 13 Este 0 -- -- 80
2018-09-02 19:00:00 26.5 8 Sudeste 17 Sudeste 0 -- -- 77
2018-09-02 18:00:00 27.1 9 Sudeste 19 Sudeste 0 -- -- 72
2018-09-02 17:00:00 27.6 11 Sudeste 21 Sudeste 0 -- -- 69
2018-09-02 16:00:00 28.1 12 Sudeste 25 Este 0 -- -- 63
2018-09-02 15:00:00 27.7 13 Sudeste 25 Sudeste 0 -- -- 60
2018-09-02 14:00:00 27.6 14 Sudeste 27 Sudeste 0 -- -- 61
2018-09-02 13:00:00 27.2 12 Este 23 Este 0 -- -- 61
2018-09-02 12:00:00 26.7 10 Sudeste 22 Este 0 -- -- 64
2018-09-02 11:00:00 25.6 11 Sudeste 22 Sudeste 0 -- -- 69
2018-09-02 10:00:00 24.7 10 Este 24 Sudeste 0 -- -- 73
2018-09-02 09:00:00 23.4 13 Sudeste 23 Sudeste 0 -- -- 80
2018-09-02 08:00:00 23 6 Este 16 Este 0 -- -- 81
2018-09-02 07:00:00 22.9 5 Este 13 Este 0 -- -- 81
2018-09-02 06:00:00 23 2 Este 8 Este 0 -- -- 83
2018-09-02 05:00:00 23 2 Nordeste 6 Este 0 -- -- 84
2018-09-02 04:00:00 23.2 0 Calma 9 Nordeste 0 -- -- 85
2018-09-02 03:00:00 23.5 0 Calma 9 Este 0 -- -- 86
2018-09-02 02:00:00 23.8 4 Este 13 Sudeste 0 -- -- 85
2018-09-02 01:00:00 23.7 3 Nordeste 15 Este 0 -- -- 85
2018-09-02 00:00:00 23.7 0 Calma 10 Nordeste 0 -- -- 85
2018-09-01 23:00:00 24.1 0 Calma 9 Este 0 -- -- 82
2018-09-01 22:00:00 24.8 0 Calma 9 Sudeste 0 -- -- 81
2018-09-01 21:00:00 25.4 3 Sur 13 Este 0 -- -- 77
2018-09-01 20:00:00 25.9 6 Sur 14 Sudeste 0 -- -- 72
2018-09-01 19:00:00 26.9 6 Sur 19 Sudeste 0 -- -- 68
2018-09-01 18:00:00 27.9 8 Sudeste 22 Este 0 -- -- 66
2018-09-01 17:00:00 28.4 10 Sudeste 26 Sudeste 0 -- -- 60
2018-09-01 16:00:00 28.9 12 Sudeste 23 Sudeste 0 -- -- 49
2018-09-01 15:00:00 28.5 12 Sudeste 24 Este 0 -- -- 56
2018-09-01 14:00:00 28 13 Sudeste 24 Este 0 -- -- 62
2018-09-01 13:00:00 27.4 10 Sudeste 23 Este 0 -- -- 62
2018-09-01 12:00:00 26.8 10 Sudeste 17 Sudeste 0 -- -- 63
2018-09-01 11:00:00 26.1 4 Sudoeste 11 Noroeste 0 -- -- 53
2018-09-01 10:00:00 24.8 5 Noroeste 12 Noroeste 0 -- -- 59
2018-09-01 09:00:00 22 4 Noroeste 9 Noroeste 0 -- -- 87
2018-09-01 08:00:00 20.9 0 Calma 5 Noroeste 0 -- -- 91
2018-09-01 07:00:00 21.7 3 Noroeste 5 Noroeste 0 -- -- 92
2018-09-01 06:00:00 22.2 4 Norte 8 Norte 0 -- -- 90
2018-09-01 05:00:00 22.3 3 Este 9 Sudeste 0 -- -- 90
2018-09-01 04:00:00 22.5 0 Calma 8 Nordeste 0 -- -- 88
2018-09-01 03:00:00 22.9 3 Este 10 Este 0 -- -- 86
2018-09-01 02:00:00 23.7 4 Este 10 Sudeste 0 -- -- 85
2018-09-01 01:00:00 24.5 5 Este 13 Este 0 -- -- 83
2018-09-01 00:00:00 23.8 5 Sudeste 13 Este 0 -- -- 87
2018-08-31 23:00:00 23.1 2 Este 5 Este 0 -- -- 87
2018-08-31 22:00:00 23.8 0 Calma 9 Sudeste 0 -- -- 83
2018-08-31 21:00:00 24.6 5 Sudeste 9 Sudeste 0 -- -- 78
2018-08-31 20:00:00 24.9 5 Sudeste 16 Sudeste 0 -- -- 79
2018-08-31 19:00:00 25 9 Sudeste 21 Sudeste 0 -- -- 82
2018-08-31 18:00:00 24.6 11 Sudeste 26 Este 0 -- -- 85
2018-08-31 17:00:00 24.5 4 Nordeste 20 Este 0 -- -- 84
2018-08-31 16:00:00 26.1 8 Este 26 Este 0 -- -- 77
2018-08-31 15:00:00 26.1 10 Este 25 Nordeste 0 -- -- 78
2018-08-31 14:00:00 24.2 6 Este 15 Este 0 -- -- 82
2018-08-31 13:00:00 25.5 5 Este 19 Sudeste 0 -- -- 80
2018-08-31 12:00:00 24.4 7 Este 19 Este 0 -- -- 83
2018-08-31 11:00:00 24.3 10 Este 28 Este 0 -- -- 83
2018-08-31 10:00:00 23.4 6 Este 19 Este 0 -- -- 88
2018-08-31 09:00:00 22.5 3 Noroeste 10 Noroeste 0 -- -- 93
2018-08-31 08:00:00 22 2 Noroeste 10 Noroeste 0.6 -- -- 92
2018-08-31 07:00:00 22.1 3 Noroeste 9 Oeste 0 -- -- 89
2018-08-31 06:00:00 22.4 3 Oeste 11 Este 0 -- -- 92
2018-08-31 05:00:00 22.1 4 Norte 17 Sudoeste 1.4 -- -- 90
2018-08-31 04:00:00 24.7 12 Sudeste 24 Sudeste 3.4 -- -- 89
2018-08-31 03:00:00 25.4 9 Sudeste 17 Sudeste 0 -- -- 84
2018-08-31 02:00:00 25.4 5 Sur 15 Sudeste 0 -- -- 84
2018-08-31 01:00:00 25.4 5 Sur 13 Sudeste 0 -- -- 83
2018-08-31 00:00:00 25.7 7 Sudoeste 12 Sur 0 -- -- 82
2018-08-30 23:00:00 25.8 5 Sudoeste 13 Sur 0 -- -- 81
2018-08-30 22:00:00 25.8 6 Sudoeste 13 Sudeste 0 -- -- 79
2018-08-30 21:00:00 26 6 Sudeste 15 Sudeste 0 -- -- 78
2018-08-30 20:00:00 26.3 7 Sur 18 Sudoeste 0 -- -- 75
2018-08-30 19:00:00 26.6 9 Sur 22 Oeste 0 -- -- 74
2018-08-30 18:00:00 27.8 10 Sudoeste 21 Oeste 0 -- -- 71
2018-08-30 17:00:00 28.2 9 Sudoeste 25 Sudeste 0 -- -- 66
2018-08-30 16:00:00 28.6 11 Sudeste 26 Sudeste 0 -- -- 63
2018-08-30 15:00:00 28.5 12 Sudoeste 28 Sudeste 0 -- -- 61
2018-08-30 14:00:00 29.4 9 Sudoeste 21 Oeste 0 -- -- 58
2018-08-30 13:00:00 29.3 8 Sudoeste 23 Sudoeste 0 -- -- 54
2018-08-30 12:00:00 28.9 7 Sudoeste 17 Sudoeste 0 -- -- 57
2018-08-30 11:00:00 28.3 5 Oeste 15 Noroeste 0 -- -- 54
2018-08-30 10:00:00 26.8 5 Noroeste 15 Noroeste 0 -- -- 58
2018-08-30 09:00:00 24.2 3 Noroeste 9 Noroeste 0 -- -- 72
2018-08-30 08:00:00 22.6 4 Noroeste 9 Noroeste 0 -- -- 84
2018-08-30 07:00:00 23 2 Noroeste 9 Norte 0 -- -- 85
2018-08-30 06:00:00 23.6 2 Noroeste 5 Noroeste 0 -- -- 85
2018-08-30 05:00:00 23.4 0 Calma 4 Noroeste 0 -- -- 86
2018-08-30 04:00:00 23.3 0 Calma 2 Este 0 -- -- 85
2018-08-30 03:00:00 23.5 0 Calma 5 Noroeste 0 -- -- 83
2018-08-30 02:00:00 24.3 0 Calma 6 Noroeste 0 -- -- 80
2018-08-30 01:00:00 24.5 4 Noroeste 6 Norte 0 -- -- 79
2018-08-30 00:00:00 24.8 2 Este 13 Este 0 -- -- 77
2018-08-29 23:00:00 25.5 7 Este 20 Sudeste 0 -- -- 76
2018-08-29 22:00:00 25.8 10 Sudeste 24 Nordeste 0 -- -- 78
2018-08-29 21:00:00 26.3 7 Este 14 Sudeste 0 -- -- 82
2018-08-29 20:00:00 26.8 6 Sudeste 13 Este 0 -- -- 81
2018-08-29 19:00:00 27.2 6 Sudeste 15 Este 0 -- -- 77
2018-08-29 18:00:00 27.8 10 Sudeste 18 Sudeste 0 -- -- 76
2018-08-29 17:00:00 28.4 9 Sudeste 17 Sudeste 0 -- -- 73
2018-08-29 16:00:00 28.2 6 Sudeste 19 Sur 0 -- -- 71
2018-08-29 15:00:00 27 10 Sudeste 16 Sudeste 0 -- -- 76
2018-08-29 14:00:00 27 7 Sudeste 15 Sudeste 0 -- -- 77
2018-08-29 13:00:00 26.3 3 Sudoeste 12 Sudeste 0.6 -- -- 79
2018-08-29 12:00:00 27.4 7 Sudeste 13 Sudeste 0 -- -- 70
2018-08-29 11:00:00 27.7 6 Sudeste 12 Sudeste 0 -- -- 68
2018-08-29 10:00:00 26.4 3 Oeste 8 Noroeste 0 -- -- 71
2018-08-29 09:00:00 24.9 0 Calma 5 Norte 0 -- -- 77
2018-08-29 08:00:00 21.9 0 Calma 5 Noroeste 0 -- -- 86
2018-08-29 07:00:00 21.6 4 Noroeste 6 Noroeste 0 -- -- 85
2018-08-29 06:00:00 22.4 0 Calma 8 Noroeste 0 -- -- 81
2018-08-29 05:00:00 23.6 5 Noroeste 9 Noroeste 0 -- -- 78
2018-08-29 04:00:00 24.2 5 Sudeste 10 Norte 0 -- -- 74
2018-08-29 03:00:00 24.1 9 Noroeste 22 Noroeste 0 -- -- 74
2018-08-29 02:00:00 24.5 4 Noroeste 21 Noroeste 0 -- -- 83
2018-08-29 01:00:00 25 6 Sur 16 Sudeste 0 -- -- 87
2018-08-29 00:00:00 24.9 3 Nordeste 14 Oeste 0 -- -- 87
2018-08-28 23:00:00 25.7 3 Sudoeste 14 Sudeste 0 -- -- 84
2018-08-28 22:00:00 25.6 3 Este 12 Oeste 0 -- -- 85
2018-08-28 21:00:00 25.5 5 Oeste 17 Oeste 0 -- -- 84
2018-08-28 20:00:00 25.9 7 Oeste 30 Noroeste 0 -- -- 82
2018-08-28 19:00:00 25.9 14 Sudeste 26 Sudeste 0.2 -- -- 82
2018-08-28 18:00:00 26.3 5 Sur 18 Sudoeste 0 -- -- 83
2018-08-28 17:00:00 26.9 6 Sudoeste 23 Sur 0 -- -- 76
2018-08-28 16:00:00 28.4 10 Sur 22 Sudoeste 0 -- -- 72
2018-08-28 15:00:00 28.7 9 Sur 21 Sudoeste 0 -- -- 70
2018-08-28 14:00:00 28.5 10 Sur 21 Sudeste 0 -- -- 72
2018-08-28 13:00:00 27.6 12 Sudeste 22 Sudeste 0 -- -- 77
2018-08-28 12:00:00 27.9 12 Sudeste 18 Sudeste 0 -- -- 76
2018-08-28 11:00:00 26.8 8 Sudeste 13 Sudeste 0 -- -- 80
2018-08-28 10:00:00 26.7 7 Sudeste 13 Este 0 -- -- 80
2018-08-28 09:00:00 25 4 Este 10 Este 0 -- -- 88
2018-08-28 08:00:00 24 3 Este 7 Este 0 -- -- 90
2018-08-28 07:00:00 24 2 Este 5 Este 0 -- -- 90
2018-08-28 06:00:00 24.2 0 Calma 6 Noroeste 0 -- -- 89
2018-08-28 05:00:00 24.6 3 Sur 6 Sudeste 0 -- -- 88
2018-08-28 04:00:00 24.5 0 Calma 6 Sudeste 0 -- -- 88
2018-08-28 03:00:00 24.9 0 Calma 10 Sudeste 0 -- -- 86
2018-08-28 02:00:00 24.9 3 Sudoeste 6 Oeste 0 -- -- 88
2018-08-28 01:00:00 24.9 0 Calma 6 Sur 0 -- -- 85
2018-08-28 00:00:00 25.1 2 Sudoeste 7 Sur 0 -- -- 84
2018-08-27 23:00:00 25.5 4 Sudoeste 10 Sudoeste 0 -- -- 83
2018-08-27 22:00:00 25.7 4 Sur 10 Sudoeste 0 -- -- 81
2018-08-27 21:00:00 26.1 6 Sudoeste 15 Sudoeste 0 -- -- 79
2018-08-27 20:00:00 26.8 5 Sudoeste 18 Oeste 0 -- -- 76
2018-08-27 19:00:00 27.9 6 Sudeste 19 Oeste 0 -- -- 71
2018-08-27 18:00:00 28.1 9 Sur 22 Sur 0 -- -- 73
2018-08-27 17:00:00 28.9 9 Sudeste 21 Sur 0 -- -- 70
2018-08-27 16:00:00 29 10 Sur 23 Sudeste 0 -- -- 69
2018-08-27 15:00:00 28.4 12 Sudeste 19 Este 0 -- -- 73
2018-08-27 14:00:00 28.1 13 Sudeste 21 Sudeste 0 -- -- 72
2018-08-27 13:00:00 27.6 11 Sudeste 18 Este 0 -- -- 73
2018-08-27 12:00:00 27.2 10 Sudeste 17 Sudeste 0 -- -- 73
2018-08-27 11:00:00 26.6 9 Sudeste 14 Sudeste 0 -- -- 74
2018-08-27 10:00:00 25.8 6 Sudeste 10 Este 0 -- -- 76
2018-08-27 09:00:00 23.5 0 Calma 9 Noroeste 0 -- -- 83
2018-08-27 08:00:00 21.8 0 Calma 8 Noroeste 0 -- -- 87
2018-08-27 07:00:00 21.4 3 Noroeste 6 Noroeste 0 -- -- 87
2018-08-27 06:00:00 21.1 0 Calma 6 Noroeste 0 -- -- 87
2018-08-27 05:00:00 20.9 5 Noroeste 8 Noroeste 0 -- -- 87
2018-08-27 04:00:00 21.2 0 Calma 5 Norte 0 -- -- 88
2018-08-27 03:00:00 21.4 3 Noroeste 6 Noroeste 0 -- -- 87
2018-08-27 02:00:00 22 3 Noroeste 5 Nordeste 0 -- -- 85
2018-08-27 01:00:00 22.6 2 Nordeste 7 Nordeste 0 -- -- 83
2018-08-27 00:00:00 22.9 3 Norte 7 Noroeste 0 -- -- 82
2018-08-26 23:00:00 23.3 3 Norte 5 Noroeste 0 -- -- 80
2018-08-26 22:00:00 23.9 0 Calma 6 Noroeste 0 -- -- 80
2018-08-26 21:00:00 24.3 2 Oeste 10 Oeste 0 -- -- 78
2018-08-26 20:00:00 24.8 5 Sudoeste 13 Oeste 0 -- -- 72
2018-08-26 19:00:00 25.7 6 Sudoeste 18 Sudeste 0 -- -- 68
2018-08-26 18:00:00 26.3 9 Sur 19 Sudeste 0 -- -- 64
2018-08-26 17:00:00 26.4 9 Sudeste 21 Sudeste 0 -- -- 62
2018-08-26 16:00:00 26.4 13 Sudeste 24 Sudeste 0 -- -- 58
2018-08-26 15:00:00 26.8 13 Sudeste 21 Sudeste 0 -- -- 45
2018-08-26 14:00:00 27 10 Sudeste 16 Sudeste 0 -- -- 42
2018-08-26 13:00:00 26.6 5 Sudeste 14 Sudeste 0 -- -- 42
2018-08-26 12:00:00 26 5 Sur 13 Sudeste 0 -- -- 43
2018-08-26 11:00:00 24.6 4 Noroeste 13 Noroeste 0 -- -- 46
2018-08-26 10:00:00 22.3 6 Noroeste 14 Norte 0 -- -- 53
2018-08-26 09:00:00 19.6 4 Norte 14 Norte 0 -- -- 59
2018-08-26 08:00:00 18.1 5 Norte 13 Noroeste 0 -- -- 62
2018-08-26 07:00:00 18 6 Noroeste 14 Noroeste 0 -- -- 67
2018-08-26 06:00:00 18.2 5 Noroeste 13 Noroeste 0 -- -- 67
2018-08-26 05:00:00 19.5 4 Noroeste 12 Norte 0 -- -- 65
2018-08-26 04:00:00 21 3 Noroeste 10 Este 0 -- -- 80
2018-08-26 03:00:00 21.6 3 Noroeste 14 Este 0 -- -- 85
2018-08-26 02:00:00 21.9 2 Nordeste 18 Este 0 -- -- 82
2018-08-26 01:00:00 21.9 6 Este 19 Sudeste 0 -- -- 83
2018-08-26 00:00:00 22.1 7 Este 22 Sudeste 2 -- -- 86
2018-08-25 23:00:00 23.7 15 Sudeste 33 Este 0.2 -- -- 77
2018-08-25 22:00:00 24.1 16 Sudeste 28 Este 0 -- -- 76
2018-08-25 21:00:00 24.4 13 Sudeste 28 Sudeste 0 -- -- 78
2018-08-25 20:00:00 25.5 11 Sudeste 30 Este 0 -- -- 78
2018-08-25 19:00:00 26 12 Este 35 Este 0 -- -- 73
2018-08-25 18:00:00 26.4 10 Este 27 Este 0 -- -- 68
2018-08-25 17:00:00 27 14 Sudeste 28 Este 0 -- -- 63
2018-08-25 16:00:00 26.1 13 Sudeste 24 Este 0 -- -- 64
2018-08-25 15:00:00 27.4 13 Sudeste 22 Sur 0 -- -- 51
2018-08-25 14:00:00 27.2 11 Sudeste 19 Sudeste 0 -- -- 50
2018-08-25 13:00:00 28.3 5 Este 13 Norte 0 -- -- 39
2018-08-25 12:00:00 26.5 4 Sudoeste 13 Sudoeste 0 -- -- 39
2018-08-25 11:00:00 25.3 6 Noroeste 18 Noroeste 0 -- -- 43
2018-08-25 10:00:00 23.2 2 Norte 17 Noroeste 0 -- -- 48
2018-08-25 09:00:00 21.3 7 Noroeste 21 Noroeste 0 -- -- 55
2018-08-25 08:00:00 19.4 10 Noroeste 19 Noroeste 0 -- -- 60
2018-08-25 07:00:00 19.7 6 Noroeste 17 Norte 0 -- -- 59
2018-08-25 06:00:00 20.4 6 Norte 16 Norte 0 -- -- 56
2018-08-25 05:00:00 21.5 0 Calma 20 Norte 0 -- -- 54
2018-08-25 04:00:00 22.1 8 Noroeste 24 Noroeste 0 -- -- 51
2018-08-25 03:00:00 22.6 9 Noroeste 23 Noroeste 0 -- -- 50
2018-08-25 02:00:00 23.3 6 Noroeste 19 Noroeste 0 -- -- 49
2018-08-25 01:00:00 24 3 Oeste 14 Noroeste 0 -- -- 77
2018-08-25 00:00:00 24.5 3 Nordeste 12 Nordeste 0 -- -- 77
2018-08-24 23:00:00 25.2 3 Nordeste 13 Este 0 -- -- 75
2018-08-24 22:00:00 26.3 2 Nordeste 26 Sudoeste 0 -- -- 73
2018-08-24 21:00:00 26.7 9 Sudoeste 21 Oeste 0 -- -- 74
2018-08-24 20:00:00 27.5 8 Sudoeste 26 Sur 0 -- -- 68
2018-08-24 19:00:00 28.8 9 Sudoeste 28 Sudoeste 0 -- -- 58
2018-08-24 18:00:00 31.7 15 Sudoeste 30 Sudoeste 0 -- -- 50
2018-08-24 17:00:00 34.9 8 Oeste 28 Oeste 0 -- -- 31
2018-08-24 16:00:00 35.1 9 Oeste 30 Oeste 0 -- -- 29
2018-08-24 15:00:00 34.1 8 Oeste 22 Oeste 0 -- -- 31
2018-08-24 14:00:00 32.7 9 Oeste 26 Oeste 0 -- -- 36
2018-08-24 13:00:00 31 9 Oeste 21 Oeste 0 -- -- 40
2018-08-24 12:00:00 29.3 5 Oeste 11 Oeste 0 -- -- 48
2018-08-24 11:00:00 27.2 4 Sudoeste 11 Noroeste 0 -- -- 55
2018-08-24 10:00:00 25.4 3 Oeste 8 Noroeste 0 -- -- 57
2018-08-24 09:00:00 23.7 2 Sudoeste 9 Este 0 -- -- 63
2018-08-24 08:00:00 21.4 0 Calma 10 Noroeste 0 -- -- 73
2018-08-24 07:00:00 21.6 0 Calma 5 Norte 0 -- -- 79
2018-08-24 06:00:00 21.7 4 Noroeste 9 Sudoeste 0 -- -- 77
2018-08-24 05:00:00 22.1 4 Oeste 10 Noroeste 0 -- -- 77
2018-08-24 04:00:00 22.8 0 Calma 7 Norte 0 -- -- 82
2018-08-24 03:00:00 23.6 3 Noroeste 5 Noroeste 0 -- -- 89
2018-08-24 02:00:00 24.1 0 Calma 5 Noroeste 0 -- -- 89
2018-08-24 01:00:00 24.7 0 Calma 5 Noroeste 0 -- -- 87
2018-08-24 00:00:00 25.4 0 Calma 5 Sudoeste 0 -- -- 84
2018-08-23 23:00:00 25.9 3 Oeste 8 Este 0 -- -- 82
2018-08-23 22:00:00 26.1 2 Este 9 Este 0 -- -- 83
2018-08-23 21:00:00 26.7 5 Sudeste 10 Oeste 0 -- -- 79
2018-08-23 20:00:00 27.2 4 Oeste 12 Sudoeste 0 -- -- 76
2018-08-23 19:00:00 27.5 6 Sudoeste 18 Oeste 0 -- -- 74
2018-08-23 18:00:00 27.8 8 Sudoeste 17 Sur 0 -- -- 72
2018-08-23 17:00:00 28.5 9 Sudoeste 17 Oeste 0 -- -- 71
2018-08-23 16:00:00 28.1 5 Sudoeste 19 Sudoeste 0 -- -- 72
2018-08-23 15:00:00 29.3 9 Sur 22 Sudeste 0 -- -- 67
2018-08-23 14:00:00 29.2 10 Sudoeste 18 Sudoeste 0 -- -- 68
2018-08-23 13:00:00 29.2 9 Sudoeste 20 Sudoeste 0 -- -- 69
2018-08-23 12:00:00 28.9 8 Sur 15 Sudoeste 0 -- -- 67
2018-08-23 11:00:00 28.4 7 Sudoeste 13 Sur 0 -- -- 65
2018-08-23 10:00:00 28 0 Calma 9 Norte 0 -- -- 56
2018-08-23 09:00:00 24.9 3 Noroeste 8 Noroeste 0 -- -- 66
2018-08-23 08:00:00 22.6 0 Calma 4 Noroeste 0 -- -- 84
2018-08-23 07:00:00 22.3 0 Calma -- -- 0 -- -- 84
2018-08-23 06:00:00 22.4 0 Calma -- -- 0 -- -- 83
2018-08-23 05:00:00 22.5 0 Calma -- -- 0 -- -- 81
2018-08-23 04:00:00 23.1 0 Calma -- -- 0 -- -- 81
2018-08-23 03:00:00 23.8 0 Calma -- -- 0 -- -- 80
2018-08-23 02:00:00 24.5 0 Calma -- -- 0 -- -- 80
2018-08-23 01:00:00 25 0 Calma -- -- 0 -- -- 78
2018-08-23 00:00:00 25.3 0 Calma -- -- 0 -- -- 76